Overview Statistics Trail Chart Weather Telemetry Raw packets
 

This is the latest recevied weather packets stored in our database for station/object N0KTA-2. If no packets are shown the sender has not sent any weather packets the latest 10 day(s).

<< 25 26 27 28 29 30 31 >>
Time Temp. Humidity Pressure Rain* Wind** Luminosity Snow
1788288504 37.22° C 32% 1009.2 hPa 0 mm - - -
1788287904 37.22° C 33% 1009.3 hPa 0 mm - - -
1788287303 36.67° C 33% 1009.4 hPa 0 mm - - -
1788286702 36.11° C 35% 1009.7 hPa 0 mm - - -
1788286103 35.56° C 37% 1009.9 hPa 0 mm - - -
1788285503 36.67° C 33% 1009.8 hPa 0 mm - - -
1788284902 36.67° C 34% 1009.8 hPa 0 mm - - -
1788284303 36.11° C 37% 1009.9 hPa 0 mm - - -
1788283702 36.11° C 38% 1010.1 hPa 0 mm - - -
1788283102 36.11° C 37% 1010.2 hPa 0 mm - - -
1788282503 35.56° C 38% 1010.3 hPa 0 mm - - -
1788281903 35.56° C 39% 1010.4 hPa 0 mm - - -
1788281302 35.56° C 40% 1010.4 hPa 0 mm - - -
1788280703 35.56° C 39% 1010.4 hPa 0 mm - - -
1788280102 35° C 39% 1010.5 hPa 0 mm - - -
1788279502 34.44° C 41% 1010.6 hPa 0 mm - - -
1788278903 33.89° C 42% 1010.6 hPa 0 mm - - -
1788278303 33.33° C 43% 1010.6 hPa 0 mm - - -
1788277703 33.33° C 43% 1010.5 hPa 0 mm - - -
1788277104 32.78° C 45% 1010.7 hPa 0 mm - - -
1788276503 32.22° C 45% 1010.8 hPa 0 mm - - -
1788275903 31.67° C 46% 1010.8 hPa 0 mm - - -
1788275303 31.11° C 48% 1010.9 hPa 0 mm - - -
1788274703 30.56° C 49% 1011 hPa 0 mm - - -
1788274102 30° C 51% 1011 hPa 0 mm - - -

* Rain latest hour (hover to see other rain measurements)
** Current wind speed in m/s (hover to see current wind gust speed)